Time;durP1;ratioP1;P1;durP2;ratioP2;P2;SDS_P1;SDS_P2;PMS_P1;PMS_P2;Temp;Humidity;BMP_temperature;BMP_pressure;BME280_temperature;BME280_humidity;BME280_pressure;Samples;Min_cycle;Max_cycle;Signal;HPM_P1;HPM_P2
2023/12/24 00:00:42;;;;;;;17.77;6.13;;;;;;;;;;6271189;28;20590;-71
2023/12/24 00:04:03;;;;;;;17.13;5.00;;;;;;;;;;6282061;28;20068;-65
2023/12/24 00:07:04;;;;;;;14.77;5.20;;;;;;;;;;6267512;28;20407;-68
2023/12/24 00:10:05;;;;;;;16.00;5.18;;;;;;;;;;6270060;28;20139;-73
2023/12/24 00:13:06;;;;;;;15.65;5.38;;;;;;;;;;6267139;28;20052;-69
2023/12/24 00:16:07;;;;;;;13.73;4.70;;;;;;;;;;6262609;28;20040;-71
2023/12/24 00:19:08;;;;;;;14.55;4.53;;;;;;;;;;6266543;28;20049;-68
2023/12/24 00:22:10;;;;;;;17.92;5.43;;;;;;;;;;6281013;28;20058;-68
2023/12/24 00:25:11;;;;;;;14.82;5.28;;;;;;;;;;6282773;28;20517;-71
2023/12/24 00:28:12;;;;;;;13.68;5.78;;;;;;;;;;6288170;28;20052;-70
2023/12/24 00:31:14;;;;;;;20.17;5.38;;;;;;;;;;6287778;28;20076;-71
2023/12/24 00:34:14;;;;;;;20.00;6.03;;;;;;;;;;6288700;28;20048;-71
2023/12/24 00:37:15;;;;;;;20.55;6.63;;;;;;;;;;6289365;28;20439;-72
2023/12/24 00:40:17;;;;;;;18.50;6.05;;;;;;;;;;6293227;28;20052;-69
2023/12/24 00:43:18;;;;;;;15.93;6.10;;;;;;;;;;6293969;28;20050;-74
2023/12/24 00:46:19;;;;;;;20.27;5.97;;;;;;;;;;6290597;28;20044;-72
2023/12/24 00:49:19;;;;;;;18.98;5.88;;;;;;;;;;6292361;28;20072;-70
2023/12/24 00:52:20;;;;;;;18.13;5.75;;;;;;;;;;6294481;28;20483;-73
2023/12/24 00:55:21;;;;;;;17.20;5.75;;;;;;;;;;6291366;28;20072;-70
2023/12/24 00:58:22;;;;;;;16.95;5.68;;;;;;;;;;6292397;28;20074;-72
2023/12/24 01:01:22;;;;;;;18.13;6.00;;;;;;;;;;6292340;28;20480;-70
2023/12/24 01:04:23;;;;;;;17.98;5.40;;;;;;;;;;6294268;28;20465;-71
2023/12/24 01:07:24;;;;;;;13.35;5.22;;;;;;;;;;6292793;28;20187;-71
2023/12/24 01:10:24;;;;;;;13.18;5.07;;;;;;;;;;6292916;28;20049;-72
2023/12/24 01:13:25;;;;;;;13.90;4.35;;;;;;;;;;6307589;28;20060;-73
2023/12/24 01:16:26;;;;;;;11.20;3.83;;;;;;;;;;6314857;28;20085;-71
2023/12/24 01:19:27;;;;;;;12.20;4.07;;;;;;;;;;6314808;28;20048;-71
2023/12/24 01:22:27;;;;;;;8.68;3.28;;;;;;;;;;6317553;28;20098;-71
2023/12/24 01:25:28;;;;;;;9.20;3.17;;;;;;;;;;6308187;28;20045;-72
2023/12/24 01:28:29;;;;;;;8.32;2.67;;;;;;;;;;6290561;28;20056;-69
2023/12/24 01:31:29;;;;;;;7.90;2.53;;;;;;;;;;6299092;28;20044;-69
2023/12/24 01:34:30;;;;;;;6.57;2.50;;;;;;;;;;6301928;28;20052;-73
2023/12/24 01:37:31;;;;;;;7.68;2.00;;;;;;;;;;6308878;28;20487;-71
2023/12/24 01:40:31;;;;;;;8.98;2.55;;;;;;;;;;6302311;28;20040;-72
2023/12/24 01:43:32;;;;;;;6.68;2.30;;;;;;;;;;6300974;28;20066;-73
2023/12/24 01:46:33;;;;;;;5.35;2.00;;;;;;;;;;6292151;28;20136;-72
2023/12/24 01:49:34;;;;;;;10.63;2.35;;;;;;;;;;6310066;28;20068;-72
2023/12/24 01:52:35;;;;;;;5.35;2.13;;;;;;;;;;6302339;28;20044;-72
2023/12/24 01:55:36;;;;;;;6.00;1.80;;;;;;;;;;6292187;28;20075;-69
2023/12/24 01:58:37;;;;;;;8.02;2.00;;;;;;;;;;6292940;28;20051;-71
2023/12/24 02:01:38;;;;;;;6.75;1.90;;;;;;;;;;6294141;28;20075;-71
2023/12/24 02:04:39;;;;;;;5.60;1.52;;;;;;;;;;6291954;28;20495;-73
2023/12/24 02:07:40;;;;;;;5.60;1.65;;;;;;;;;;6293721;28;20479;-71
2023/12/24 02:10:42;;;;;;;4.30;1.60;;;;;;;;;;6294551;28;20058;-71
2023/12/24 02:13:44;;;;;;;6.03;2.00;;;;;;;;;;6293539;28;20049;-72
2023/12/24 02:16:47;;;;;;;5.25;1.45;;;;;;;;;;6293083;28;20052;-67
2023/12/24 02:19:48;;;;;;;6.55;1.60;;;;;;;;;;6285118;28;20066;-71
2023/12/24 02:22:49;;;;;;;5.22;1.90;;;;;;;;;;6295449;28;20056;-73
2023/12/24 02:25:51;;;;;;;4.55;1.52;;;;;;;;;;6299990;28;20482;-70
2023/12/24 02:28:59;;;;;;;7.25;1.48;;;;;;;;;;6312155;28;20134;-71
2023/12/24 02:32:09;;;;;;;5.40;1.58;;;;;;;;;;6300435;28;20059;-72
2023/12/24 02:35:11;;;;;;;8.50;1.85;;;;;;;;;;6308912;28;20191;-72
2023/12/24 02:38:12;;;;;;;;;;;;;;;;;;6315414;28;20044;-71
2023/12/24 02:41:13;;;;;;;4.45;1.48;;;;;;;;;;6309983;28;19932;-71
2023/12/24 02:44:14;;;;;;;5.05;1.40;;;;;;;;;;6310619;28;20129;-70
2023/12/24 02:47:15;;;;;;;8.07;1.60;;;;;;;;;;6311980;28;20501;-71
2023/12/24 02:50:18;;;;;;;4.38;1.45;;;;;;;;;;6307406;28;20079;-72
2023/12/24 02:53:18;;;;;;;5.85;1.30;;;;;;;;;;6312897;28;20575;-71
2023/12/24 02:56:19;;;;;;;8.23;1.60;;;;;;;;;;6308860;28;20044;-70
2023/12/24 02:59:20;;;;;;;5.47;1.30;;;;;;;;;;6309772;28;20534;-70
2023/12/24 03:02:21;;;;;;;4.00;1.30;;;;;;;;;;6312541;28;20044;-71
2023/12/24 03:05:21;;;;;;;4.22;1.73;;;;;;;;;;6312851;28;20052;-72
2023/12/24 03:08:22;;;;;;;6.85;1.55;;;;;;;;;;6312524;28;20552;-72
2023/12/24 03:11:23;;;;;;;7.75;1.40;;;;;;;;;;6313493;28;20090;-69
2023/12/24 03:14:24;;;;;;;4.97;1.40;;;;;;;;;;6313376;28;20047;-72
2023/12/24 03:17:24;;;;;;;5.63;1.60;;;;;;;;;;6309278;28;20063;-72
2023/12/24 03:20:25;;;;;;;4.78;1.55;;;;;;;;;;6312834;28;20052;-68
2023/12/24 03:23:25;;;;;;;5.50;2.25;;;;;;;;;;6315134;28;20410;-71
2023/12/24 03:26:26;;;;;;;8.70;2.20;;;;;;;;;;6310630;28;20124;-69
2023/12/24 03:29:27;;;;;;;8.80;2.70;;;;;;;;;;6314300;28;20059;-71
2023/12/24 03:32:28;;;;;;;7.50;1.80;;;;;;;;;;6309673;28;20087;-72
2023/12/24 03:35:28;;;;;;;8.80;2.55;;;;;;;;;;6313150;28;20379;-73
2023/12/24 03:38:29;;;;;;;5.95;1.92;;;;;;;;;;6312583;28;20048;-72
2023/12/24 03:41:30;;;;;;;6.18;2.20;;;;;;;;;;6309301;28;20041;-69
2023/12/24 03:44:31;;;;;;;6.25;2.15;;;;;;;;;;6312089;28;20482;-73
2023/12/24 03:47:31;;;;;;;6.40;1.92;;;;;;;;;;6311495;28;20047;-73
2023/12/24 03:50:32;;;;;;;8.10;2.55;;;;;;;;;;6314106;28;20080;-73
2023/12/24 03:53:33;;;;;;;12.18;2.20;;;;;;;;;;6313622;28;20089;-71
2023/12/24 03:56:34;;;;;;;8.07;2.25;;;;;;;;;;6310272;28;20048;-72
2023/12/24 03:59:34;;;;;;;9.40;2.55;;;;;;;;;;6308986;28;20086;-73
2023/12/24 04:02:35;;;;;;;6.20;2.17;;;;;;;;;;6313667;28;20060;-72
2023/12/24 04:05:36;;;;;;;8.85;2.60;;;;;;;;;;6310596;28;20049;-73
2023/12/24 04:08:37;;;;;;;8.80;2.63;;;;;;;;;;6312390;28;20055;-73
2023/12/24 04:11:37;;;;;;;7.93;2.42;;;;;;;;;;6311602;28;20051;-73
2023/12/24 04:14:38;;;;;;;8.25;2.42;;;;;;;;;;6312168;28;20039;-67
2023/12/24 04:17:39;;;;;;;9.90;2.85;;;;;;;;;;6312212;28;20044;-73
2023/12/24 04:20:40;;;;;;;10.20;2.78;;;;;;;;;;6309644;28;20479;-69
2023/12/24 04:23:40;;;;;;;8.98;2.83;;;;;;;;;;6311929;28;20040;-74
2023/12/24 04:26:41;;;;;;;8.98;2.63;;;;;;;;;;6311036;28;20110;-73
2023/12/24 04:29:42;;;;;;;9.45;2.80;;;;;;;;;;6311687;28;20755;-73
2023/12/24 04:32:43;;;;;;;7.35;2.47;;;;;;;;;;6311876;28;20134;-72
2023/12/24 04:35:45;;;;;;;7.47;2.33;;;;;;;;;;6309381;28;20225;-66
2023/12/24 04:38:45;;;;;;;;;;;;;;;;;;6311099;28;20468;-72
2023/12/24 04:41:46;;;;;;;7.68;2.45;;;;;;;;;;6312346;28;20593;-73
2023/12/24 04:44:47;;;;;;;11.00;2.42;;;;;;;;;;6308153;28;20127;-73
2023/12/24 04:47:48;;;;;;;8.90;2.95;;;;;;;;;;6311227;28;20110;-70
2023/12/24 04:50:49;;;;;;;11.03;2.80;;;;;;;;;;6313056;28;20479;-66
2023/12/24 04:53:49;;;;;;;10.02;2.97;;;;;;;;;;6312748;28;20054;-72
2023/12/24 04:56:50;;;;;;;8.90;2.88;;;;;;;;;;6311431;28;20051;-67
2023/12/24 04:59:51;;;;;;;10.20;3.67;;;;;;;;;;6311328;28;20521;-67
2023/12/24 05:02:52;;;;;;;13.27;3.38;;;;;;;;;;6310954;28;20134;-67
2023/12/24 05:05:55;;;;;;;11.43;3.40;;;;;;;;;;6308733;28;20091;-69
2023/12/24 05:08:56;;;;;;;11.43;3.75;;;;;;;;;;6286764;28;20508;-68
2023/12/24 05:11:56;;;;;;;14.15;4.43;;;;;;;;;;6315480;28;20044;-70
2023/12/24 05:15:00;;;;;;;11.32;4.50;;;;;;;;;;6308770;28;20139;-70
2023/12/24 05:18:00;;;;;;;11.20;3.95;;;;;;;;;;6309393;28;20047;-67
2023/12/24 05:21:01;;;;;;;11.27;4.40;;;;;;;;;;6313951;28;20066;-68
2023/12/24 05:24:01;;;;;;;15.10;4.70;;;;;;;;;;6296232;28;20058;-70
2023/12/24 05:27:02;;;;;;;15.25;5.05;;;;;;;;;;6315986;28;20051;-70
2023/12/24 05:30:03;;;;;;;13.48;5.00;;;;;;;;;;6316410;28;20148;-69
2023/12/24 05:33:04;;;;;;;19.38;6.40;;;;;;;;;;6316521;28;20163;-70
2023/12/24 05:36:05;;;;;;;18.58;6.53;;;;;;;;;;6314901;28;20044;-68
2023/12/24 05:39:06;;;;;;;19.65;7.57;;;;;;;;;;6315133;28;20131;-68
2023/12/24 05:42:07;;;;;;;23.10;8.60;;;;;;;;;;6313919;28;20044;-69
2023/12/24 05:45:10;;;;;;;22.98;8.40;;;;;;;;;;6314023;28;20418;-69
2023/12/24 05:48:11;;;;;;;21.02;7.93;;;;;;;;;;6315830;28;20186;-67
2023/12/24 05:51:13;;;;;;;21.48;8.38;;;;;;;;;;6316873;28;20059;-70
2023/12/24 05:54:14;;;;;;;18.00;6.68;;;;;;;;;;6307978;28;20083;-69
2023/12/24 05:57:14;;;;;;;51.80;18.02;;;;;;;;;;6293334;28;20479;-69
2023/12/24 06:00:15;;;;;;;23.65;9.10;;;;;;;;;;6294543;28;20102;-69
2023/12/24 06:03:16;;;;;;;26.10;12.45;;;;;;;;;;6294455;28;20124;-69
2023/12/24 06:06:17;;;;;;;20.20;7.45;;;;;;;;;;6292079;28;20402;-68
2023/12/24 06:09:18;;;;;;;18.02;6.97;;;;;;;;;;6293462;28;20068;-70
2023/12/24 06:12:18;;;;;;;20.67;8.88;;;;;;;;;;6294031;28;20048;-72
2023/12/24 06:15:19;;;;;;;25.88;9.00;;;;;;;;;;6293481;28;20098;-73
2023/12/24 06:18:20;;;;;;;26.65;10.23;;;;;;;;;;6293912;28;20059;-72
2023/12/24 06:21:21;;;;;;;27.35;7.85;;;;;;;;;;6294243;28;20064;-71
2023/12/24 06:24:21;;;;;;;34.47;11.88;;;;;;;;;;6293645;28;20048;-73
2023/12/24 06:27:23;;;;;;;27.45;9.43;;;;;;;;;;6292532;28;20135;-72
2023/12/24 06:30:23;;;;;;;29.00;9.70;;;;;;;;;;6294027;28;20231;-71
2023/12/24 06:33:24;;;;;;;29.48;10.48;;;;;;;;;;6293638;28;20547;-72
2023/12/24 06:36:25;;;;;;;31.23;11.57;;;;;;;;;;6290257;28;20048;-68
2023/12/24 06:39:25;;;;;;;33.38;12.07;;;;;;;;;;6303467;28;20414;-64
2023/12/24 06:42:26;;;;;;;31.48;10.60;;;;;;;;;;6305207;28;20411;-64
2023/12/24 06:45:27;;;;;;;31.10;10.57;;;;;;;;;;6291901;28;20048;-65
2023/12/24 06:48:28;;;;;;;31.15;12.63;;;;;;;;;;6292948;28;20052;-65
2023/12/24 06:51:28;;;;;;;38.88;14.02;;;;;;;;;;6291801;28;20041;-65
2023/12/24 06:54:29;;;;;;;51.20;15.63;;;;;;;;;;6290499;28;20036;-65
2023/12/24 06:57:30;;;;;;;51.20;15.68;;;;;;;;;;6292075;28;20483;-64
2023/12/24 07:00:30;;;;;;;47.88;14.52;;;;;;;;;;6292525;28;20044;-63
2023/12/24 07:03:31;;;;;;;41.45;15.20;;;;;;;;;;6293025;28;20054;-65
2023/12/24 07:06:32;;;;;;;34.20;13.32;;;;;;;;;;6290226;28;20061;-65
2023/12/24 07:09:32;;;;;;;37.00;15.00;;;;;;;;;;6291595;28;20044;-64
2023/12/24 07:12:33;;;;;;;34.00;13.43;;;;;;;;;;6292076;28;20063;-64
2023/12/24 07:15:39;;;;;;;33.05;12.77;;;;;;;;;;6290988;28;20045;-64
2023/12/24 07:18:40;;;;;;;28.40;12.80;;;;;;;;;;6292036;28;20059;-64
2023/12/24 07:21:41;;;;;;;46.40;17.00;;;;;;;;;;6291805;28;20139;-64
2023/12/24 07:24:42;;;;;;;64.57;21.38;;;;;;;;;;6289876;28;20044;-64
2023/12/24 07:27:44;;;;;;;46.95;15.15;;;;;;;;;;6289145;28;20101;-65
2023/12/24 07:30:45;;;;;;;54.30;16.73;;;;;;;;;;6290896;28;20106;-64
2023/12/24 07:33:46;;;;;;;44.15;14.48;;;;;;;;;;6291264;28;20048;-64
2023/12/24 07:36:46;;;;;;;43.28;15.25;;;;;;;;;;6290074;28;20040;-64
2023/12/24 07:39:47;;;;;;;44.05;13.80;;;;;;;;;;6291848;28;20155;-64
2023/12/24 07:42:47;;;;;;;83.38;28.98;;;;;;;;;;6291927;28;20159;-62
2023/12/24 07:45:49;;;;;;;66.15;23.15;;;;;;;;;;6290105;28;20044;-64
2023/12/24 07:48:50;;;;;;;98.15;31.17;;;;;;;;;;6290740;28;20052;-64
2023/12/24 07:51:50;;;;;;;82.95;28.58;;;;;;;;;;6291977;28;20129;-64
2023/12/24 07:54:51;;;;;;;84.32;27.88;;;;;;;;;;6291113;28;20048;-62
2023/12/24 07:57:52;;;;;;;73.70;26.70;;;;;;;;;;6290752;28;20087;-62
2023/12/24 08:00:52;;;;;;;84.90;25.38;;;;;;;;;;6292069;28;20040;-62
2023/12/24 08:03:53;;;;;;;83.05;24.25;;;;;;;;;;6291835;28;20055;-61
2023/12/24 08:06:54;;;;;;;98.82;29.90;;;;;;;;;;6290646;28;20059;-61
2023/12/24 08:09:57;;;;;;;89.00;29.08;;;;;;;;;;6291393;28;20044;-62
2023/12/24 08:12:59;;;;;;;92.90;32.80;;;;;;;;;;6291911;28;20411;-61
2023/12/24 08:15:59;;;;;;;;;;;;;;;;;;6290929;28;20104;-61
2023/12/24 08:19:00;;;;;;;84.90;25.35;;;;;;;;;;6291231;28;19921;-61
2023/12/24 08:22:01;;;;;;;88.18;25.92;;;;;;;;;;6291667;28;20036;-61
2023/12/24 08:25:02;;;;;;;46.42;17.25;;;;;;;;;;6290424;28;20040;-61
2023/12/24 08:28:05;;;;;;;45.42;15.30;;;;;;;;;;6290447;28;20047;-63
2023/12/24 08:31:07;;;;;;;83.75;27.45;;;;;;;;;;6291081;28;20886;-64
2023/12/24 08:34:07;;;;;;;97.53;35.00;;;;;;;;;;6291818;28;20179;-63
2023/12/24 08:37:09;;;;;;;116.40;36.78;;;;;;;;;;6289423;28;20049;-63
2023/12/24 08:40:11;;;;;;;105.97;33.60;;;;;;;;;;6291439;28;20051;-64
2023/12/24 08:43:11;;;;;;;94.78;25.65;;;;;;;;;;6291236;28;20060;-64
2023/12/24 08:46:12;;;;;;;71.55;21.83;;;;;;;;;;6289388;28;20045;-65
2023/12/24 08:49:14;;;;;;;83.75;25.80;;;;;;;;;;6289479;28;20098;-66
2023/12/24 08:52:18;;;;;;;97.32;31.10;;;;;;;;;;6290606;28;20055;-65
2023/12/24 08:55:18;;;;;;;99.28;34.33;;;;;;;;;;6289630;28;20049;-62
2023/12/24 08:58:19;;;;;;;85.38;28.98;;;;;;;;;;6289716;28;20515;-63
2023/12/24 09:01:20;;;;;;;76.65;25.38;;;;;;;;;;6294493;28;20064;-61
2023/12/24 09:04:21;;;;;;;79.88;25.65;;;;;;;;;;6307576;28;20060;-60
2023/12/24 09:07:21;;;;;;;51.28;20.50;;;;;;;;;;6292949;28;20051;-63
2023/12/24 09:10:22;;;;;;;51.10;20.33;;;;;;;;;;6293791;28;20468;-62
2023/12/24 09:13:22;;;;;;;61.85;19.67;;;;;;;;;;6295566;28;20048;-60
2023/12/24 09:16:23;;;;;;;60.63;22.02;;;;;;;;;;6293482;28;20462;-68
2023/12/24 09:19:24;;;;;;;59.30;22.15;;;;;;;;;;6295119;28;20045;-64
2023/12/24 09:22:25;;;;;;;74.00;24.40;;;;;;;;;;6301492;28;20056;-64
2023/12/24 09:25:25;;;;;;;73.75;22.70;;;;;;;;;;6293613;28;20745;-67
2023/12/24 09:28:26;;;;;;;84.45;26.77;;;;;;;;;;6292907;28;20095;-62
2023/12/24 09:31:27;;;;;;;95.10;29.63;;;;;;;;;;6318538;28;20371;-61
2023/12/24 09:34:29;;;;;;;103.90;33.42;;;;;;;;;;6314275;28;20131;-61
2023/12/24 09:37:30;;;;;;;134.63;42.65;;;;;;;;;;6294272;28;20044;-63
2023/12/24 09:40:31;;;;;;;;;;;;;;;;;;6317803;28;20498;-61
2023/12/24 09:43:33;;;;;;;113.60;33.15;;;;;;;;;;6315767;28;19931;-62
2023/12/24 09:46:34;;;;;;;111.13;33.83;;;;;;;;;;6311200;28;20050;-61
2023/12/24 09:49:35;;;;;;;94.60;28.95;;;;;;;;;;6311225;28;20040;-61
2023/12/24 09:52:36;;;;;;;52.60;21.02;;;;;;;;;;6308658;28;20048;-62
2023/12/24 09:55:38;;;;;;;75.45;25.08;;;;;;;;;;6313151;28;20040;-62
2023/12/24 09:58:40;;;;;;;70.07;23.55;;;;;;;;;;6310089;28;20578;-62
2023/12/24 10:01:43;;;;;;;49.05;19.30;;;;;;;;;;6314699;28;20140;-61
2023/12/24 10:04:44;;;;;;;54.58;21.33;;;;;;;;;;6315475;28;20117;-61
2023/12/24 10:07:45;;;;;;;64.07;24.52;;;;;;;;;;6313099;28;20453;-62
2023/12/24 10:10:46;;;;;;;58.45;22.13;;;;;;;;;;6313966;28;20051;-61
2023/12/24 10:13:57;;;;;;;61.80;22.52;;;;;;;;;;6315833;28;20044;-63
2023/12/24 10:17:00;;;;;;;73.57;25.83;;;;;;;;;;6314356;28;20050;-63
2023/12/24 10:20:09;;;;;;;55.35;19.25;;;;;;;;;;6314740;28;20044;-66
2023/12/24 10:23:10;;;;;;;61.53;23.17;;;;;;;;;;6313777;28;20085;-66
2023/12/24 10:26:12;;;;;;;64.47;23.77;;;;;;;;;;6314623;28;20056;-66
2023/12/24 10:29:20;;;;;;;92.93;30.75;;;;;;;;;;6312673;28;20056;-67
2023/12/24 10:32:24;;;;;;;89.47;25.08;;;;;;;;;;6314080;28;20044;-64
2023/12/24 10:35:26;;;;;;;64.63;19.67;;;;;;;;;;6314238;28;20169;-63
2023/12/24 10:38:27;;;;;;;52.78;19.25;;;;;;;;;;6314057;28;20093;-67
2023/12/24 10:41:28;;;;;;;38.37;15.60;;;;;;;;;;6310775;28;20056;-66
2023/12/24 10:44:28;;;;;;;42.72;16.40;;;;;;;;;;6313579;28;20098;-62
2023/12/24 10:47:29;;;;;;;43.42;15.93;;;;;;;;;;6312396;28;20138;-63
2023/12/24 10:50:30;;;;;;;46.28;17.38;;;;;;;;;;6314737;28;20093;-62
2023/12/24 10:53:31;;;;;;;44.90;18.27;;;;;;;;;;6314575;28;20092;-62
2023/12/24 10:56:37;;;;;;;48.58;17.00;;;;;;;;;;6314141;28;20498;-62
2023/12/24 10:59:55;;;;;;;59.20;17.50;;;;;;;;;;6312376;28;20394;-62
2023/12/24 11:02:56;;;;;;;53.72;17.65;;;;;;;;;;6314448;28;20048;-62
2023/12/24 11:05:58;;;;;;;52.35;17.27;;;;;;;;;;6313148;28;20109;-64
2023/12/24 11:08:58;;;;;;;55.67;18.40;;;;;;;;;;6309415;28;20402;-64
2023/12/24 11:11:59;;;;;;;49.45;18.80;;;;;;;;;;6310914;28;20143;-65
2023/12/24 11:15:01;;;;;;;48.53;17.48;;;;;;;;;;6314235;28;20098;-67
2023/12/24 11:18:03;;;;;;;48.58;17.52;;;;;;;;;;6311580;28;20071;-68
2023/12/24 11:21:05;;;;;;;57.70;20.70;;;;;;;;;;6310940;28;20105;-66
2023/12/24 11:24:10;;;;;;;55.47;20.17;;;;;;;;;;6310297;28;20046;-64
2023/12/24 11:27:11;;;;;;;57.00;21.63;;;;;;;;;;6312764;28;20415;-64
2023/12/24 11:30:12;;;;;;;61.63;23.55;;;;;;;;;;6276413;28;20051;-67
2023/12/24 11:33:33;;;;;;;59.90;21.90;;;;;;;;;;6293425;28;20068;-66
2023/12/24 11:36:34;;;;;;;51.75;17.92;;;;;;;;;;6288062;28;20294;-67
2023/12/24 11:40:04;;;;;;;70.90;26.95;;;;;;;;;;6289476;28;20381;-67
2023/12/24 11:43:06;;;;;;;55.03;18.90;;;;;;;;;;6285606;28;20054;-65
2023/12/24 11:46:08;;;;;;;44.20;17.05;;;;;;;;;;6274212;28;20060;-64
2023/12/24 11:49:11;;;;;;;;;;;;;;;;;;6289774;28;20048;-62
2023/12/24 11:52:12;;;;;;;46.90;16.13;;;;;;;;;;6284846;28;19943;-62
2023/12/24 11:55:19;;;;;;;94.03;26.73;;;;;;;;;;6277068;28;20475;-62
2023/12/24 11:58:20;;;;;;;77.63;31.75;;;;;;;;;;6286598;28;20411;-63
2023/12/24 12:01:25;;;;;;;67.00;26.30;;;;;;;;;;6288834;28;20058;-65
2023/12/24 12:04:26;;;;;;;43.55;16.83;;;;;;;;;;6287108;28;20459;-65
2023/12/24 12:07:28;;;;;;;57.28;23.50;;;;;;;;;;6287639;28;20071;-60
2023/12/24 12:10:28;;;;;;;34.78;13.00;;;;;;;;;;6303986;28;20059;-60
2023/12/24 12:13:29;;;;;;;39.17;12.55;;;;;;;;;;6308241;28;20117;-60
2023/12/24 12:16:30;;;;;;;43.83;15.13;;;;;;;;;;6307834;28;20040;-60
2023/12/24 12:19:31;;;;;;;34.72;12.18;;;;;;;;;;6310485;28;20085;-61
2023/12/24 12:22:31;;;;;;;27.88;10.82;;;;;;;;;;6312864;28;20044;-62
2023/12/24 12:25:32;;;;;;;27.02;10.43;;;;;;;;;;6310947;28;20048;-60
2023/12/24 12:28:36;;;;;;;29.15;10.77;;;;;;;;;;6311469;28;20488;-61
2023/12/24 12:31:37;;;;;;;32.90;12.25;;;;;;;;;;6312702;28;20089;-61
2023/12/24 12:34:39;;;;;;;58.05;20.75;;;;;;;;;;6312221;28;20040;-61
2023/12/24 12:37:40;;;;;;;;;;;;;;;;;;6316655;28;20044;-61
2023/12/24 12:40:41;;;;;;;59.63;21.88;;;;;;;;;;6315667;28;19924;-62
2023/12/24 12:43:41;;;;;;;38.28;15.40;;;;;;;;;;6315416;28;20139;-60
2023/12/24 12:46:42;;;;;;;32.25;12.85;;;;;;;;;;6317361;28;20048;-61
2023/12/24 12:49:43;;;;;;;35.22;13.18;;;;;;;;;;6317652;28;20044;-61
2023/12/24 12:52:49;;;;;;;25.05;10.30;;;;;;;;;;6312395;28;20051;-61
2023/12/24 12:55:50;;;;;;;28.27;12.65;;;;;;;;;;6316945;28;20048;-61
2023/12/24 12:58:52;;;;;;;26.13;9.23;;;;;;;;;;6316801;28;20712;-62
2023/12/24 13:01:55;;;;;;;25.92;10.38;;;;;;;;;;6314858;28;20050;-60
2023/12/24 13:04:55;;;;;;;29.40;9.40;;;;;;;;;;6315392;28;20052;-62
2023/12/24 13:07:57;;;;;;;44.30;14.93;;;;;;;;;;6317825;28;20101;-61
2023/12/24 13:11:05;;;;;;;34.60;14.70;;;;;;;;;;6316823;28;20048;-62
2023/12/24 13:14:08;;;;;;;20.65;8.45;;;;;;;;;;6314024;28;20050;-62
2023/12/24 13:17:10;;;;;;;31.27;10.05;;;;;;;;;;6316091;28;20044;-61
2023/12/24 13:20:10;;;;;;;;;;;;;;;;;;6317117;28;20104;-61
2023/12/24 13:23:11;;;;;;;23.95;8.65;;;;;;;;;;6315179;28;19924;-62
2023/12/24 13:26:12;;;;;;;26.17;8.30;;;;;;;;;;6312313;28;20058;-62
2023/12/24 13:29:13;;;;;;;23.60;8.27;;;;;;;;;;6314215;28;20056;-63
2023/12/24 13:32:13;;;;;;;29.98;9.10;;;;;;;;;;6315535;28;20252;-63
2023/12/24 13:35:14;;;;;;;30.77;9.80;;;;;;;;;;6315012;28;20062;-62
2023/12/24 13:38:19;;;;;;;31.70;11.23;;;;;;;;;;6316360;28;20043;-62
2023/12/24 13:41:20;;;;;;;65.22;27.33;;;;;;;;;;6314572;28;20047;-62
2023/12/24 13:44:21;;;;;;;69.47;31.17;;;;;;;;;;6316021;28;20054;-62
2023/12/24 13:47:22;;;;;;;34.95;13.77;;;;;;;;;;6313986;28;20056;-63
2023/12/24 13:50:23;;;;;;;36.13;11.50;;;;;;;;;;6316283;28;20044;-63
2023/12/24 13:53:24;;;;;;;23.55;9.10;;;;;;;;;;6316567;28;20082;-62
2023/12/24 13:56:24;;;;;;;26.38;8.73;;;;;;;;;;6314083;28;20094;-63
2023/12/24 13:59:25;;;;;;;31.42;10.10;;;;;;;;;;6314465;28;20046;-62
2023/12/24 14:02:26;;;;;;;28.52;9.80;;;;;;;;;;6310128;28;20582;-62
2023/12/24 14:05:28;;;;;;;29.17;11.27;;;;;;;;;;6311776;28;20048;-63
2023/12/24 14:08:30;;;;;;;29.55;10.77;;;;;;;;;;6313078;28;20040;-63
2023/12/24 14:11:31;;;;;;;33.80;12.23;;;;;;;;;;6288650;28;20050;-62
2023/12/24 14:14:31;;;;;;;59.53;18.50;;;;;;;;;;6313714;28;20378;-62
2023/12/24 14:17:33;;;;;;;35.42;14.93;;;;;;;;;;6314546;28;20052;-62
2023/12/24 14:20:35;;;;;;;;;;;;;;;;;;6315129;28;20048;-63
2023/12/24 14:23:35;;;;;;;32.08;14.13;;;;;;;;;;6314360;28;19927;-63
2023/12/24 14:26:37;;;;;;;21.50;10.40;;;;;;;;;;6315560;28;20044;-62
2023/12/24 14:29:38;;;;;;;29.77;12.05;;;;;;;;;;6315626;28;20048;-62
2023/12/24 14:32:39;;;;;;;31.17;12.70;;;;;;;;;;6315543;28;20096;-62
2023/12/24 14:35:39;;;;;;;19.02;8.90;;;;;;;;;;6313400;28;20048;-62
2023/12/24 14:38:40;;;;;;;24.52;11.68;;;;;;;;;;6314124;28;20040;-63
2023/12/24 14:41:41;;;;;;;28.35;10.02;;;;;;;;;;6313566;28;20143;-62
2023/12/24 14:44:43;;;;;;;21.58;10.05;;;;;;;;;;6313966;28;20048;-63
2023/12/24 14:47:44;;;;;;;23.30;9.30;;;;;;;;;;6312559;28;20059;-63
2023/12/24 14:50:44;;;;;;;22.48;9.63;;;;;;;;;;6311588;28;20125;-62
2023/12/24 14:53:45;;;;;;;23.05;9.20;;;;;;;;;;6311992;28;20047;-63
2023/12/24 14:56:46;;;;;;;15.95;7.53;;;;;;;;;;6312843;28;20090;-63
2023/12/24 14:59:48;;;;;;;19.73;8.98;;;;;;;;;;6312729;28;20063;-63
2023/12/24 15:02:48;;;;;;;17.67;7.78;;;;;;;;;;6311648;28;20130;-63
2023/12/24 15:05:49;;;;;;;15.98;7.63;;;;;;;;;;6309374;28;20056;-63
2023/12/24 15:08:50;;;;;;;14.88;8.07;;;;;;;;;;6313531;28;20076;-63
2023/12/24 15:11:50;;;;;;;15.27;7.50;;;;;;;;;;6312709;28;20407;-63
2023/12/24 15:14:51;;;;;;;19.23;8.63;;;;;;;;;;6312709;28;20544;-63
2023/12/24 15:17:52;;;;;;;19.50;8.82;;;;;;;;;;6312118;28;20498;-63
2023/12/24 15:20:53;;;;;;;16.23;7.35;;;;;;;;;;6313591;28;20054;-63
2023/12/24 15:23:54;;;;;;;17.17;8.18;;;;;;;;;;6312843;28;20055;-62
2023/12/24 15:26:55;;;;;;;15.98;7.82;;;;;;;;;;6308479;28;20052;-63
2023/12/24 15:29:55;;;;;;;13.20;6.75;;;;;;;;;;6313163;28;20064;-63
2023/12/24 15:32:58;;;;;;;10.80;5.80;;;;;;;;;;6313893;28;20550;-62
2023/12/24 15:35:59;;;;;;;16.70;6.88;;;;;;;;;;6312443;28;20070;-63
2023/12/24 15:39:03;;;;;;;14.43;7.07;;;;;;;;;;6312565;28;20042;-62
2023/12/24 15:42:06;;;;;;;14.98;7.13;;;;;;;;;;6311479;28;20048;-63
2023/12/24 15:45:07;;;;;;;13.80;7.18;;;;;;;;;;6311398;28;20127;-63
2023/12/24 15:48:07;;;;;;;14.48;6.00;;;;;;;;;;6313116;28;20560;-64
2023/12/24 15:51:08;;;;;;;13.43;7.50;;;;;;;;;;6316397;28;20527;-63
2023/12/24 15:54:09;;;;;;;14.18;7.95;;;;;;;;;;6312497;28;20487;-64
2023/12/24 15:57:10;;;;;;;16.33;8.55;;;;;;;;;;6311927;28;20044;-63
2023/12/24 16:00:11;;;;;;;12.25;6.15;;;;;;;;;;6313477;28;20052;-63
2023/12/24 16:03:12;;;;;;;11.17;5.57;;;;;;;;;;6313531;28;20138;-63
2023/12/24 16:06:12;;;;;;;14.35;6.75;;;;;;;;;;6311832;28;20495;-63
2023/12/24 16:09:13;;;;;;;12.20;6.10;;;;;;;;;;6312193;28;20048;-65
2023/12/24 16:12:14;;;;;;;11.18;5.57;;;;;;;;;;6310375;28;20062;-64
2023/12/24 16:15:16;;;;;;;18.73;8.85;;;;;;;;;;6311633;28;20054;-63
2023/12/24 16:18:16;;;;;;;16.23;7.95;;;;;;;;;;6313650;28;20131;-63
2023/12/24 16:21:17;;;;;;;14.30;7.07;;;;;;;;;;6311682;28;20472;-63
2023/12/24 16:24:18;;;;;;;16.42;7.25;;;;;;;;;;6310866;28;20050;-63
2023/12/24 16:27:19;;;;;;;27.08;12.48;;;;;;;;;;6310557;28;20072;-64
2023/12/24 16:30:20;;;;;;;17.87;8.30;;;;;;;;;;6311947;28;20048;-63
2023/12/24 16:33:21;;;;;;;14.63;6.60;;;;;;;;;;6311478;28;20048;-63
2023/12/24 16:36:24;;;;;;;13.93;6.97;;;;;;;;;;6310542;28;20048;-63
2023/12/24 16:39:25;;;;;;;15.50;5.93;;;;;;;;;;6312777;28;20197;-63
2023/12/24 16:42:26;;;;;;;12.82;6.78;;;;;;;;;;6311661;28;20392;-63
2023/12/24 16:45:27;;;;;;;15.75;6.85;;;;;;;;;;6309757;28;20489;-63
2023/12/24 16:48:28;;;;;;;14.65;6.50;;;;;;;;;;6309856;28;20083;-63
2023/12/24 16:51:29;;;;;;;19.83;8.90;;;;;;;;;;6311485;28;20044;-63
2023/12/24 16:54:31;;;;;;;15.63;6.90;;;;;;;;;;6311636;28;20058;-62
2023/12/24 16:57:32;;;;;;;15.15;6.65;;;;;;;;;;6309769;28;20414;-63
2023/12/24 17:00:33;;;;;;;14.65;6.45;;;;;;;;;;6311617;28;20054;-62
2023/12/24 17:03:34;;;;;;;12.27;6.60;;;;;;;;;;6310847;28;20052;-62
2023/12/24 17:06:34;;;;;;;12.98;5.47;;;;;;;;;;6308748;28;20060;-62
2023/12/24 17:09:35;;;;;;;13.00;5.97;;;;;;;;;;6311624;28;20051;-63
2023/12/24 17:12:36;;;;;;;10.65;5.25;;;;;;;;;;6311588;28;20403;-62
2023/12/24 17:15:40;;;;;;;10.88;4.93;;;;;;;;;;6311801;28;20048;-62
2023/12/24 17:18:41;;;;;;;11.80;4.88;;;;;;;;;;6311055;28;20044;-63
2023/12/24 17:21:42;;;;;;;13.32;5.28;;;;;;;;;;6315069;28;20048;-63
2023/12/24 17:24:43;;;;;;;14.10;6.50;;;;;;;;;;6313668;28;21141;-62
2023/12/24 17:27:44;;;;;;;13.27;5.45;;;;;;;;;;6313608;28;20071;-62
2023/12/24 17:30:44;;;;;;;13.93;4.88;;;;;;;;;;6315960;28;20796;-63
2023/12/24 17:33:45;;;;;;;10.75;4.40;;;;;;;;;;6315967;28;20067;-63
2023/12/24 17:36:47;;;;;;;10.02;4.65;;;;;;;;;;6312905;28;20043;-64
2023/12/24 17:39:48;;;;;;;10.63;4.75;;;;;;;;;;6316023;28;20048;-63
2023/12/24 17:42:49;;;;;;;10.98;4.03;;;;;;;;;;6315153;28;20055;-63
2023/12/24 17:45:49;;;;;;;9.52;4.55;;;;;;;;;;6293490;28;20052;-63
2023/12/24 17:48:50;;;;;;;11.63;4.20;;;;;;;;;;6312338;28;20458;-62